sensor_id;sensor_type;location;lat;lon;timestamp;pressure;altitude;pressure_sealevel;temperature;humidity
78123;BME280;67376;44.802;10.332;2023-11-19T00:02:06;101683.38;;;20.68;36.57
78123;BME280;67376;44.802;10.332;2023-11-19T00:04:33;101677.94;;;20.68;36.56
78123;BME280;67376;44.802;10.332;2023-11-19T00:06:59;101668.97;;;20.68;36.50
78123;BME280;67376;44.802;10.332;2023-11-19T00:09:28;101658.97;;;20.68;36.92
78123;BME280;67376;44.802;10.332;2023-11-19T00:11:54;101670.84;;;20.67;36.58
78123;BME280;67376;44.802;10.332;2023-11-19T00:14:19;101676.28;;;20.67;36.97
78123;BME280;67376;44.802;10.332;2023-11-19T00:16:44;101668.16;;;20.67;36.85
78123;BME280;67376;44.802;10.332;2023-11-19T00:19:09;101664.59;;;20.67;36.40
78123;BME280;67376;44.802;10.332;2023-11-19T00:21:35;101681.72;;;20.67;37.03
78123;BME280;67376;44.802;10.332;2023-11-19T00:24:01;101690.69;;;20.68;36.75
78123;BME280;67376;44.802;10.332;2023-11-19T00:26:26;101690.91;;;20.66;37.00
78123;BME280;67376;44.802;10.332;2023-11-19T00:28:52;101688.19;;;20.66;36.42
78123;BME280;67376;44.802;10.332;2023-11-19T00:31:17;101691.72;;;20.67;36.15
78123;BME280;67376;44.802;10.332;2023-11-19T00:33:43;101685.47;;;20.66;36.26
78123;BME280;67376;44.802;10.332;2023-11-19T00:36:08;101674.84;;;20.65;36.99
78123;BME280;67376;44.802;10.332;2023-11-19T00:38:34;101690.91;;;20.66;36.18
78123;BME280;67376;44.802;10.332;2023-11-19T00:40:59;101684.84;;;20.64;36.97
78123;BME280;67376;44.802;10.332;2023-11-19T00:43:24;101683.81;;;20.65;36.81
78123;BME280;67376;44.802;10.332;2023-11-19T00:45:51;101682.13;;;20.64;36.96
78123;BME280;67376;44.802;10.332;2023-11-19T00:48:16;101670.44;;;20.64;36.82
78123;BME280;67376;44.802;10.332;2023-11-19T00:50:42;101658.56;;;20.65;36.34
78123;BME280;67376;44.802;10.332;2023-11-19T00:53:09;101666.91;;;20.63;36.50
78123;BME280;67376;44.802;10.332;2023-11-19T00:55:34;101669.63;;;20.63;36.12
78123;BME280;67376;44.802;10.332;2023-11-19T00:57:59;101669.63;;;20.63;36.35
78123;BME280;67376;44.802;10.332;2023-11-19T01:00:26;101672.34;;;20.63;36.65
78123;BME280;67376;44.802;10.332;2023-11-19T01:02:52;101671.50;;;20.63;36.44
78123;BME280;67376;44.802;10.332;2023-11-19T01:05:17;101668.78;;;20.63;36.13
78123;BME280;67376;44.802;10.332;2023-11-19T01:07:46;101673.38;;;20.62;36.52
78123;BME280;67376;44.802;10.332;2023-11-19T01:10:12;101666.06;;;20.63;36.45
78123;BME280;67376;44.802;10.332;2023-11-19T01:12:37;101669.00;;;20.61;36.63
78123;BME280;67376;44.802;10.332;2023-11-19T01:15:03;101669.84;;;20.62;36.20
78123;BME280;67376;44.802;10.332;2023-11-19T01:17:28;101667.94;;;20.62;36.35
78123;BME280;67376;44.802;10.332;2023-11-19T01:19:54;101669.84;;;20.62;36.91
78123;BME280;67376;44.802;10.332;2023-11-19T01:22:20;101664.41;;;20.62;36.27
78123;BME280;67376;44.802;10.332;2023-11-19T01:24:45;101658.16;;;20.61;36.46
78123;BME280;67376;44.802;10.332;2023-11-19T01:27:10;101660.03;;;20.61;36.50
78123;BME280;67376;44.802;10.332;2023-11-19T01:29:35;101661.91;;;20.60;36.33
78123;BME280;67376;44.802;10.332;2023-11-19T01:32:03;101650.00;;;20.61;36.69
78123;BME280;67376;44.802;10.332;2023-11-19T01:34:28;101644.78;;;20.60;36.44
78123;BME280;67376;44.802;10.332;2023-11-19T01:36:53;101643.13;;;20.59;36.44
78123;BME280;67376;44.802;10.332;2023-11-19T01:39:19;101644.78;;;20.60;36.27
78123;BME280;67376;44.802;10.332;2023-11-19T01:41:45;101639.38;;;20.60;36.50
78123;BME280;67376;44.802;10.332;2023-11-19T01:44:10;101633.13;;;20.59;36.10
78123;BME280;67376;44.802;10.332;2023-11-19T01:46:37;101632.28;;;20.59;36.71
78123;BME280;67376;44.802;10.332;2023-11-19T01:49:04;101623.31;;;20.58;36.67
78123;BME280;67376;44.802;10.332;2023-11-19T01:51:30;101619.75;;;20.58;36.52
78123;BME280;67376;44.802;10.332;2023-11-19T01:53:56;101609.75;;;20.58;36.84
78123;BME280;67376;44.802;10.332;2023-11-19T01:56:22;101608.91;;;20.58;36.40
78123;BME280;67376;44.802;10.332;2023-11-19T01:58:48;101613.50;;;20.57;36.40
78123;BME280;67376;44.802;10.332;2023-11-19T02:01:13;101610.78;;;20.57;36.88
78123;BME280;67376;44.802;10.332;2023-11-19T02:03:39;101620.81;;;20.57;36.91
78123;BME280;67376;44.802;10.332;2023-11-19T02:06:05;101611.63;;;20.58;36.93
78123;BME280;67376;44.802;10.332;2023-11-19T02:08:30;101617.06;;;20.58;36.17
78123;BME280;67376;44.802;10.332;2023-11-19T02:10:56;101610.78;;;20.57;36.44
78123;BME280;67376;44.802;10.332;2023-11-19T02:13:25;101605.38;;;20.57;36.29
78123;BME280;67376;44.802;10.332;2023-11-19T02:15:51;101602.88;;;20.56;36.79
78123;BME280;67376;44.802;10.332;2023-11-19T02:20:44;101592.84;;;20.56;36.38
78123;BME280;67376;44.802;10.332;2023-11-19T02:23:11;101594.72;;;20.56;36.26
78123;BME280;67376;44.802;10.332;2023-11-19T02:25:36;101592.00;;;20.56;36.74
78123;BME280;67376;44.802;10.332;2023-11-19T02:28:02;101578.44;;;20.56;36.35
78123;BME280;67376;44.802;10.332;2023-11-19T02:30:28;101575.72;;;20.56;36.09
78123;BME280;67376;44.802;10.332;2023-11-19T02:32:54;101562.38;;;20.54;36.71
78123;BME280;67376;44.802;10.332;2023-11-19T02:35:22;101568.66;;;20.55;36.24
78123;BME280;67376;44.802;10.332;2023-11-19T02:37:47;101565.94;;;20.55;36.47
78123;BME280;67376;44.802;10.332;2023-11-19T02:40:12;101556.97;;;20.54;36.59
78123;BME280;67376;44.802;10.332;2023-11-19T02:42:38;101544.22;;;20.55;36.82
78123;BME280;67376;44.802;10.332;2023-11-19T02:45:04;101546.09;;;20.54;36.94
78123;BME280;67376;44.802;10.332;2023-11-19T02:47:31;101545.28;;;20.54;36.11
78123;BME280;67376;44.802;10.332;2023-11-19T02:49:56;101541.72;;;20.53;36.88
78123;BME280;67376;44.802;10.332;2023-11-19T02:52:22;101536.31;;;20.53;36.32
78123;BME280;67376;44.802;10.332;2023-11-19T02:54:48;101526.50;;;20.52;36.17
78123;BME280;67376;44.802;10.332;2023-11-19T02:57:13;101525.66;;;20.52;36.06
78123;BME280;67376;44.802;10.332;2023-11-19T02:59:39;101524.63;;;20.53;36.77
78123;BME280;67376;44.802;10.332;2023-11-19T03:02:06;101533.81;;;20.52;36.24
78123;BME280;67376;44.802;10.332;2023-11-19T03:04:32;101519.41;;;20.51;36.37
78123;BME280;67376;44.802;10.332;2023-11-19T03:06:57;101518.59;;;20.51;36.13
78123;BME280;67376;44.802;10.332;2023-11-19T03:09:23;101524.00;;;20.51;36.21
78123;BME280;67376;44.802;10.332;2023-11-19T03:11:49;101513.16;;;20.51;35.97
78123;BME280;67376;44.802;10.332;2023-11-19T03:14:14;101519.41;;;20.51;36.36
78123;BME280;67376;44.802;10.332;2023-11-19T03:16:40;101511.50;;;20.50;36.30
78123;BME280;67376;44.802;10.332;2023-11-19T03:19:05;101503.34;;;20.50;36.71
78123;BME280;67376;44.802;10.332;2023-11-19T03:21:30;101504.19;;;20.50;36.71
78123;BME280;67376;44.802;10.332;2023-11-19T03:23:59;101500.66;;;20.50;36.31
78123;BME280;67376;44.802;10.332;2023-11-19T03:26:25;101500.66;;;20.50;36.03
78123;BME280;67376;44.802;10.332;2023-11-19T03:28:51;101497.94;;;20.50;36.55
78123;BME280;67376;44.802;10.332;2023-11-19T03:31:16;101509.63;;;20.50;36.09
78123;BME280;67376;44.802;10.332;2023-11-19T03:33:42;101514.41;;;20.48;36.10
78123;BME280;67376;44.802;10.332;2023-11-19T03:36:07;101501.69;;;20.49;36.45
78123;BME280;67376;44.802;10.332;2023-11-19T03:38:34;101506.28;;;20.48;36.27
78123;BME280;67376;44.802;10.332;2023-11-19T03:40:59;101509.00;;;20.48;36.56
78123;BME280;67376;44.802;10.332;2023-11-19T03:43:24;101513.59;;;20.48;36.86
78123;BME280;67376;44.802;10.332;2023-11-19T03:45:49;101506.28;;;20.48;36.10
78123;BME280;67376;44.802;10.332;2023-11-19T03:48:15;101514.41;;;20.48;36.02
78123;BME280;67376;44.802;10.332;2023-11-19T03:50:44;101511.72;;;20.48;36.63
78123;BME280;67376;44.802;10.332;2023-11-19T03:53:09;101510.88;;;20.48;35.99
78123;BME280;67376;44.802;10.332;2023-11-19T03:55:34;101519.22;;;20.46;36.13
78123;BME280;67376;44.802;10.332;2023-11-19T03:57:59;101529.03;;;20.47;36.86
78123;BME280;67376;44.802;10.332;2023-11-19T04:00:25;101524.66;;;20.46;36.62
78123;BME280;67376;44.802;10.332;2023-11-19T04:02:50;101517.34;;;20.47;36.50
78123;BME280;67376;44.802;10.332;2023-11-19T04:05:15;101510.25;;;20.46;36.28
78123;BME280;67376;44.802;10.332;2023-11-19T04:07:40;101516.53;;;20.46;36.58
78123;BME280;67376;44.802;10.332;2023-11-19T04:10:06;101519.22;;;20.46;36.76
78123;BME280;67376;44.802;10.332;2023-11-19T04:12:31;101515.69;;;20.46;36.80
78123;BME280;67376;44.802;10.332;2023-11-19T04:14:56;101517.56;;;20.45;35.95
78123;BME280;67376;44.802;10.332;2023-11-19T04:17:21;101518.41;;;20.46;36.23
78123;BME280;67376;44.802;10.332;2023-11-19T04:19:48;101531.13;;;20.45;36.39
78123;BME280;67376;44.802;10.332;2023-11-19T04:22:13;101525.72;;;20.45;36.40
78123;BME280;67376;44.802;10.332;2023-11-19T04:24:38;101524.03;;;20.44;36.08
78123;BME280;67376;44.802;10.332;2023-11-19T04:27:03;101515.91;;;20.44;35.96
78123;BME280;67376;44.802;10.332;2023-11-19T04:29:29;101515.91;;;20.44;36.16
78123;BME280;67376;44.802;10.332;2023-11-19T04:31:55;101509.66;;;20.43;36.13
78123;BME280;67376;44.802;10.332;2023-11-19T04:34:20;101511.53;;;20.43;36.00
78123;BME280;67376;44.802;10.332;2023-11-19T04:36:46;101507.97;;;20.42;36.13
78123;BME280;67376;44.802;10.332;2023-11-19T04:39:11;101514.25;;;20.43;36.00
78123;BME280;67376;44.802;10.332;2023-11-19T04:41:47;101517.78;;;20.43;36.02
78123;BME280;67376;44.802;10.332;2023-11-19T04:44:13;101511.75;;;20.41;36.01
78123;BME280;67376;44.802;10.332;2023-11-19T04:46:39;101501.72;;;20.42;36.24
78123;BME280;67376;44.802;10.332;2023-11-19T04:49:04;101511.75;;;20.41;35.94
78123;BME280;67376;44.802;10.332;2023-11-19T04:51:29;101509.03;;;20.41;36.08
78123;BME280;67376;44.802;10.332;2023-11-19T04:53:55;101500.91;;;20.41;36.60
78123;BME280;67376;44.802;10.332;2023-11-19T04:56:21;101494.63;;;20.41;36.23
78123;BME280;67376;44.802;10.332;2023-11-19T04:58:48;101481.91;;;20.41;36.02
78123;BME280;67376;44.802;10.332;2023-11-19T05:01:13;101481.28;;;20.39;36.04
78123;BME280;67376;44.802;10.332;2023-11-19T05:03:40;101486.50;;;20.41;36.79
78123;BME280;67376;44.802;10.332;2023-11-19T05:06:06;101479.41;;;20.40;35.99
78123;BME280;67376;44.802;10.332;2023-11-19T05:08:31;101468.56;;;20.40;35.93
78123;BME280;67376;44.802;10.332;2023-11-19T05:10:57;101461.47;;;20.39;36.58
78123;BME280;67376;44.802;10.332;2023-11-19T05:13:22;101472.13;;;20.40;36.79
78123;BME280;67376;44.802;10.332;2023-11-19T05:15:48;101460.66;;;20.38;36.72
78123;BME280;67376;44.802;10.332;2023-11-19T05:18:13;101459.59;;;20.39;36.40
78123;BME280;67376;44.802;10.332;2023-11-19T05:20:38;101455.22;;;20.38;36.23
78123;BME280;67376;44.802;10.332;2023-11-19T05:23:03;101454.19;;;20.39;36.64
78123;BME280;67376;44.802;10.332;2023-11-19T05:25:28;101444.38;;;20.38;36.01
78123;BME280;67376;44.802;10.332;2023-11-19T05:27:54;101448.97;;;20.38;36.35
78123;BME280;67376;44.802;10.332;2023-11-19T05:30:20;101442.69;;;20.37;35.89
78123;BME280;67376;44.802;10.332;2023-11-19T05:32:45;101447.09;;;20.38;36.31
78123;BME280;67376;44.802;10.332;2023-11-19T05:35:11;101448.97;;;20.38;36.71
78123;BME280;67376;44.802;10.332;2023-11-19T05:37:36;101450.81;;;20.37;36.24
78123;BME280;67376;44.802;10.332;2023-11-19T05:40:01;101450.00;;;20.37;36.80
78123;BME280;67376;44.802;10.332;2023-11-19T05:42:29;101442.91;;;20.36;36.61
78123;BME280;67376;44.802;10.332;2023-11-19T05:44:54;101452.69;;;20.37;36.66
78123;BME280;67376;44.802;10.332;2023-11-19T05:47:19;101457.28;;;20.36;36.36
78123;BME280;67376;44.802;10.332;2023-11-19T05:49:44;101446.44;;;20.36;36.53
78123;BME280;67376;44.802;10.332;2023-11-19T05:52:10;101442.91;;;20.36;36.42
78123;BME280;67376;44.802;10.332;2023-11-19T05:54:37;101428.50;;;20.35;36.48
78123;BME280;67376;44.802;10.332;2023-11-19T05:57:05;101439.13;;;20.37;36.26
78123;BME280;67376;44.802;10.332;2023-11-19T05:59:34;101440.19;;;20.36;36.15
78123;BME280;67376;44.802;10.332;2023-11-19T06:02:01;101424.75;;;20.36;36.76
78123;BME280;67376;44.802;10.332;2023-11-19T06:04:26;101435.59;;;20.36;36.56
78123;BME280;67376;44.802;10.332;2023-11-19T06:06:51;101432.06;;;20.36;36.95
78123;BME280;67376;44.802;10.332;2023-11-19T06:09:16;101428.28;;;20.37;36.18
78123;BME280;67376;44.802;10.332;2023-11-19T06:11:43;101430.16;;;20.36;36.39
78123;BME280;67376;44.802;10.332;2023-11-19T06:14:09;101438.31;;;20.36;36.09
78123;BME280;67376;44.802;10.332;2023-11-19T06:16:34;101436.44;;;20.37;36.54
78123;BME280;67376;44.802;10.332;2023-11-19T06:19:01;101436.44;;;20.37;36.52
78123;BME280;67376;44.802;10.332;2023-11-19T06:21:27;101442.69;;;20.37;36.92
78123;BME280;67376;44.802;10.332;2023-11-19T06:23:52;101443.72;;;20.36;36.89
78123;BME280;67376;44.802;10.332;2023-11-19T06:26:18;101444.56;;;20.37;36.96
78123;BME280;67376;44.802;10.332;2023-11-19T06:28:43;101452.69;;;20.37;36.29
78123;BME280;67376;44.802;10.332;2023-11-19T06:31:09;101444.56;;;20.37;36.40
78123;BME280;67376;44.802;10.332;2023-11-19T06:33:34;101443.53;;;20.38;36.28
78123;BME280;67376;44.802;10.332;2023-11-19T06:35:59;101433.53;;;20.38;36.26
78123;BME280;67376;44.802;10.332;2023-11-19T06:38:25;101444.38;;;20.38;36.49
78123;BME280;67376;44.802;10.332;2023-11-19T06:40:50;101453.34;;;20.39;36.46
78123;BME280;67376;44.802;10.332;2023-11-19T06:43:15;101447.91;;;20.39;36.48
78123;BME280;67376;44.802;10.332;2023-11-19T06:45:40;101446.03;;;20.39;36.48
78123;BME280;67376;44.802;10.332;2023-11-19T06:48:06;101438.94;;;20.38;36.89
78123;BME280;67376;44.802;10.332;2023-11-19T06:50:32;101442.50;;;20.39;36.47
78123;BME280;67376;44.802;10.332;2023-11-19T06:52:57;101446.03;;;20.39;36.30
78123;BME280;67376;44.802;10.332;2023-11-19T06:55:23;101440.63;;;20.39;36.95
78123;BME280;67376;44.802;10.332;2023-11-19T06:57:48;101449.59;;;20.40;36.85
78123;BME280;67376;44.802;10.332;2023-11-19T07:00:13;101445.22;;;20.39;36.99
78123;BME280;67376;44.802;10.332;2023-11-19T07:02:38;101447.69;;;20.40;36.35
78123;BME280;67376;44.802;10.332;2023-11-19T07:05:04;101453.97;;;20.41;36.59
78123;BME280;67376;44.802;10.332;2023-11-19T07:07:30;101457.72;;;20.40;36.88
78123;BME280;67376;44.802;10.332;2023-11-19T07:09:55;101458.56;;;20.40;36.81
78123;BME280;67376;44.802;10.332;2023-11-19T07:12:20;101459.38;;;20.41;36.46
78123;BME280;67376;44.802;10.332;2023-11-19T07:14:46;101460.44;;;20.40;36.96
78123;BME280;67376;44.802;10.332;2023-11-19T07:17:11;101465.63;;;20.41;36.44
78123;BME280;67376;44.802;10.332;2023-11-19T07:19:37;101462.94;;;20.41;36.80
78123;BME280;67376;44.802;10.332;2023-11-19T07:22:03;101462.94;;;20.41;36.83
78123;BME280;67376;44.802;10.332;2023-11-19T07:24:28;101462.94;;;20.41;36.44
78123;BME280;67376;44.802;10.332;2023-11-19T07:26:54;101463.75;;;20.42;37.11
78123;BME280;67376;44.802;10.332;2023-11-19T07:29:19;101480.84;;;20.42;36.49
78123;BME280;67376;44.802;10.332;2023-11-19T07:31:46;101486.28;;;20.42;36.12
78123;BME280;67376;44.802;10.332;2023-11-19T07:34:12;101485.25;;;20.43;36.60
78123;BME280;67376;44.802;10.332;2023-11-19T07:36:39;101484.41;;;20.43;36.81
78123;BME280;67376;44.802;10.332;2023-11-19T07:39:04;101489.84;;;20.43;36.10
78123;BME280;67376;44.802;10.332;2023-11-19T07:41:30;101478.16;;;20.42;37.01
78123;BME280;67376;44.802;10.332;2023-11-19T07:43:55;101477.31;;;20.42;36.93
78123;BME280;67376;44.802;10.332;2023-11-19T07:46:21;101474.38;;;20.43;36.25
78123;BME280;67376;44.802;10.332;2023-11-19T07:48:46;101474.38;;;20.43;36.65
78123;BME280;67376;44.802;10.332;2023-11-19T07:51:14;101485.25;;;20.43;36.29
78123;BME280;67376;44.802;10.332;2023-11-19T07:53:40;101487.94;;;20.43;36.58
78123;BME280;67376;44.802;10.332;2023-11-19T07:56:06;101490.44;;;20.45;36.38
78123;BME280;67376;44.802;10.332;2023-11-19T07:58:31;101483.34;;;20.44;36.38
78123;BME280;67376;44.802;10.332;2023-11-19T08:00:56;101489.63;;;20.44;36.55
78123;BME280;67376;44.802;10.332;2023-11-19T08:03:21;101481.47;;;20.44;37.01
78123;BME280;67376;44.802;10.332;2023-11-19T08:05:47;101482.53;;;20.43;36.89
78123;BME280;67376;44.802;10.332;2023-11-19T08:08:12;101478.75;;;20.44;36.54
78123;BME280;67376;44.802;10.332;2023-11-19T08:10:37;101478.53;;;20.46;36.37
78123;BME280;67376;44.802;10.332;2023-11-19T08:13:03;101494.00;;;20.46;36.33
78123;BME280;67376;44.802;10.332;2023-11-19T08:15:29;101497.75;;;20.44;36.57
78123;BME280;67376;44.802;10.332;2023-11-19T08:17:54;101495.88;;;20.45;36.30
78123;BME280;67376;44.802;10.332;2023-11-19T08:20:19;101494.81;;;20.46;36.53
78123;BME280;67376;44.802;10.332;2023-11-19T08:22:44;101492.09;;;20.46;36.57
78123;BME280;67376;44.802;10.332;2023-11-19T08:25:10;101502.97;;;20.46;36.46
78123;BME280;67376;44.802;10.332;2023-11-19T08:27:35;101493.78;;;20.47;37.05
78123;BME280;67376;44.802;10.332;2023-11-19T08:30:00;101498.38;;;20.47;36.63
78123;BME280;67376;44.802;10.332;2023-11-19T08:32:26;101506.50;;;20.47;36.56
78123;BME280;67376;44.802;10.332;2023-11-19T08:34:51;101503.56;;;20.48;36.30
78123;BME280;67376;44.802;10.332;2023-11-19T08:37:17;101502.75;;;20.48;36.23
78123;BME280;67376;44.802;10.332;2023-11-19T08:39:46;101491.88;;;20.48;36.21
78123;BME280;67376;44.802;10.332;2023-11-19T08:42:11;101498.97;;;20.49;36.27
78123;BME280;67376;44.802;10.332;2023-11-19T08:44:37;101480.81;;;20.49;36.55
78123;BME280;67376;44.802;10.332;2023-11-19T08:47:02;101484.59;;;20.48;37.10
78123;BME280;67376;44.802;10.332;2023-11-19T08:49:27;101486.25;;;20.49;36.23
78123;BME280;67376;44.802;10.332;2023-11-19T08:51:53;101491.66;;;20.49;36.19
78123;BME280;67376;44.802;10.332;2023-11-19T08:54:18;101485.19;;;20.50;36.85
78123;BME280;67376;44.802;10.332;2023-11-19T08:56:45;101477.06;;;20.50;36.47
78123;BME280;67376;44.802;10.332;2023-11-19T08:59:10;101481.66;;;20.50;36.44
78123;BME280;67376;44.802;10.332;2023-11-19T09:01:36;101479.78;;;20.50;36.39
78123;BME280;67376;44.802;10.332;2023-11-19T09:04:01;101478.72;;;20.51;36.49
78123;BME280;67376;44.802;10.332;2023-11-19T09:06:26;101493.94;;;20.52;36.58
78123;BME280;67376;44.802;10.332;2023-11-19T09:08:52;101503.97;;;20.52;36.55
78123;BME280;67376;44.802;10.332;2023-11-19T09:11:17;101510.66;;;20.49;34.82
78123;BME280;67376;44.802;10.332;2023-11-19T09:13:43;101506.53;;;20.40;34.45
78123;BME280;67376;44.802;10.332;2023-11-19T09:16:11;101504.47;;;20.29;33.85
78123;BME280;67376;44.802;10.332;2023-11-19T09:18:36;101514.38;;;20.17;34.16
78123;BME280;67376;44.802;10.332;2023-11-19T09:21:02;101500.66;;;20.05;34.39
78123;BME280;67376;44.802;10.332;2023-11-19T09:23:28;101508.63;;;19.93;33.62
78123;BME280;67376;44.802;10.332;2023-11-19T09:25:55;101508.44;;;19.82;34.52
78123;BME280;67376;44.802;10.332;2023-11-19T09:28:20;101513.91;;;19.68;34.35
78123;BME280;67376;44.802;10.332;2023-11-19T09:30:46;101508.53;;;19.55;34.65
78123;BME280;67376;44.802;10.332;2023-11-19T09:33:11;101510.81;;;19.45;35.14
78123;BME280;67376;44.802;10.332;2023-11-19T09:35:36;101512.28;;;19.34;35.41
78123;BME280;67376;44.802;10.332;2023-11-19T09:38:01;101507.91;;;19.27;35.90
78123;BME280;67376;44.802;10.332;2023-11-19T09:40:27;101497.50;;;19.24;36.19
78123;BME280;67376;44.802;10.332;2023-11-19T09:42:53;101500.22;;;19.24;36.42
78123;BME280;67376;44.802;10.332;2023-11-19T09:45:20;101511.66;;;19.26;35.71
78123;BME280;67376;44.802;10.332;2023-11-19T09:47:46;101501.44;;;19.28;35.83
78123;BME280;67376;44.802;10.332;2023-11-19T09:50:15;101510.81;;;19.32;36.55
78123;BME280;67376;44.802;10.332;2023-11-19T09:52:41;101506.66;;;19.36;36.79
78123;BME280;67376;44.802;10.332;2023-11-19T09:55:07;101501.66;;;19.39;36.58
78123;BME280;67376;44.802;10.332;2023-11-19T09:57:32;101495.81;;;19.42;37.04
78123;BME280;67376;44.802;10.332;2023-11-19T09:59:59;101491.63;;;19.46;36.99
78123;BME280;67376;44.802;10.332;2023-11-19T10:02:25;101495.59;;;19.51;36.90
78123;BME280;67376;44.802;10.332;2023-11-19T10:04:52;101505.22;;;19.53;36.04
78123;BME280;67376;44.802;10.332;2023-11-19T10:07:17;101499.38;;;19.56;35.95
78123;BME280;67376;44.802;10.332;2023-11-19T10:09:43;101497.28;;;19.58;36.67
78123;BME280;67376;44.802;10.332;2023-11-19T10:12:08;101486.84;;;19.62;37.13
78123;BME280;67376;44.802;10.332;2023-11-19T10:14:33;101489.94;;;19.65;36.71
78123;BME280;67376;44.802;10.332;2023-11-19T10:17:02;101492.22;;;19.68;37.10
78123;BME280;67376;44.802;10.332;2023-11-19T10:19:29;101492.00;;;19.70;36.52
78123;BME280;67376;44.802;10.332;2023-11-19T10:21:54;101488.88;;;19.73;36.27
78123;BME280;67376;44.802;10.332;2023-11-19T10:24:31;101489.50;;;19.75;36.48
78123;BME280;67376;44.802;10.332;2023-11-19T10:26:56;101480.09;;;19.77;36.76
78123;BME280;67376;44.802;10.332;2023-11-19T10:29:21;101480.72;;;19.79;36.99
78123;BME280;67376;44.802;10.332;2023-11-19T10:31:55;101475.09;;;19.81;37.04
78123;BME280;67376;44.802;10.332;2023-11-19T10:34:24;101468.63;;;19.82;36.76
78123;BME280;67376;44.802;10.332;2023-11-19T10:36:50;101473.63;;;19.85;36.26
78123;BME280;67376;44.802;10.332;2023-11-19T10:39:15;101460.69;;;19.87;36.58
78123;BME280;67376;44.802;10.332;2023-11-19T10:41:40;101456.94;;;19.88;36.06
78123;BME280;67376;44.802;10.332;2023-11-19T10:44:05;101452.13;;;19.90;36.19
78123;BME280;67376;44.802;10.332;2023-11-19T10:46:40;101449.22;;;19.92;36.70
78123;BME280;67376;44.802;10.332;2023-11-19T10:49:09;101452.53;;;19.94;36.17
78123;BME280;67376;44.802;10.332;2023-11-19T10:51:35;101453.38;;;19.94;36.79
78123;BME280;67376;44.802;10.332;2023-11-19T10:54:04;101444.81;;;19.97;36.28
78123;BME280;67376;44.802;10.332;2023-11-19T10:56:33;101434.78;;;19.98;36.31
78123;BME280;67376;44.802;10.332;2023-11-19T10:58:59;101428.31;;;19.99;36.30
78123;BME280;67376;44.802;10.332;2023-11-19T11:01:25;101414.78;;;19.99;36.42
78123;BME280;67376;44.802;10.332;2023-11-19T11:03:51;101423.31;;;20.02;36.74
78123;BME280;67376;44.802;10.332;2023-11-19T11:06:19;101410.59;;;20.03;36.61
78123;BME280;67376;44.802;10.332;2023-11-19T11:08:44;101417.66;;;20.04;36.89
78123;BME280;67376;44.802;10.332;2023-11-19T11:11:11;101406.59;;;20.05;36.91
78123;BME280;67376;44.802;10.332;2023-11-19T11:13:38;101404.72;;;20.06;36.64
78123;BME280;67376;44.802;10.332;2023-11-19T11:16:06;101402.63;;;20.08;36.20
78123;BME280;67376;44.802;10.332;2023-11-19T11:18:32;101402.41;;;20.09;36.28
78123;BME280;67376;44.802;10.332;2023-11-19T11:21:17;101396.78;;;20.11;36.21
78123;BME280;67376;44.802;10.332;2023-11-19T11:39:31;101375.88;;;20.18;37.07
78123;BME280;67376;44.802;10.332;2023-11-19T11:50:11;101354.59;;;20.22;36.24
78123;BME280;67376;44.802;10.332;2023-11-19T11:55:26;101347.03;;;20.24;36.38
78123;BME280;67376;44.802;10.332;2023-11-19T11:57:52;101346.81;;;20.25;36.39
78123;BME280;67376;44.802;10.332;2023-11-19T12:00:28;101340.34;;;20.26;36.65
78123;BME280;67376;44.802;10.332;2023-11-19T12:03:01;101337.41;;;20.28;37.17
78123;BME280;67376;44.802;10.332;2023-11-19T12:05:26;101327.38;;;20.28;37.15
78123;BME280;67376;44.802;10.332;2023-11-19T12:08:02;101334.47;;;20.29;36.50
78123;BME280;67376;44.802;10.332;2023-11-19T12:10:29;101328.00;;;20.30;37.26
78123;BME280;67376;44.802;10.332;2023-11-19T12:12:58;101327.78;;;20.32;36.53
78123;BME280;67376;44.802;10.332;2023-11-19T12:15:23;101332.16;;;20.33;36.74
78123;BME280;67376;44.802;10.332;2023-11-19T12:17:50;101322.97;;;20.34;36.96
78123;BME280;67376;44.802;10.332;2023-11-19T12:20:16;101321.91;;;20.35;36.81
78123;BME280;67376;44.802;10.332;2023-11-19T12:22:42;101321.69;;;20.36;37.04
78123;BME280;67376;44.802;10.332;2023-11-19T12:25:08;101306.25;;;20.37;37.61
78123;BME280;67376;44.802;10.332;2023-11-19T12:27:37;101310.66;;;20.38;36.89
78123;BME280;67376;44.802;10.332;2023-11-19T12:30:04;101307.72;;;20.39;37.37
78123;BME280;67376;44.802;10.332;2023-11-19T12:32:39;101296.88;;;20.39;37.95
78123;BME280;67376;44.802;10.332;2023-11-19T12:35:05;101305.84;;;20.40;37.18
78123;BME280;67376;44.802;10.332;2023-11-19T12:37:30;101300.19;;;20.41;37.02
78123;BME280;67376;44.802;10.332;2023-11-19T12:39:56;101307.28;;;20.42;37.27
78123;BME280;67376;44.802;10.332;2023-11-19T12:42:34;101302.69;;;20.43;37.36
78123;BME280;67376;44.802;10.332;2023-11-19T12:44:59;101293.50;;;20.44;37.76
78123;BME280;67376;44.802;10.332;2023-11-19T12:47:24;101285.34;;;20.44;37.10
78123;BME280;67376;44.802;10.332;2023-11-19T12:49:59;101287.00;;;20.45;37.05
78123;BME280;67376;44.802;10.332;2023-11-19T12:52:24;101277.81;;;20.46;36.87
78123;BME280;67376;44.802;10.332;2023-11-19T12:54:50;101276.16;;;20.45;37.86
78123;BME280;67376;44.802;10.332;2023-11-19T12:57:16;101278.66;;;20.47;37.60
78123;BME280;67376;44.802;10.332;2023-11-19T12:59:41;101271.34;;;20.47;37.11
78123;BME280;67376;44.802;10.332;2023-11-19T13:02:08;101264.88;;;20.48;37.39
78123;BME280;67376;44.802;10.332;2023-11-19T13:04:33;101262.16;;;20.48;37.10